To NAV CANADA Home Page Login to a new session Search on AWWS site Disclaimer Vers la page française équivalente Tips FAQ What's new on the site To the Forecasts and Observations / NOTAM section To "File a Flight Plan" website Publications and other links Update of the User's profile FIC Telephone Numbers My Weather Data Folder Route Weather Data Regional Weather Data Local Weather Data To the Forecasts and Observations / NOTAM section
Request Generated 03/21/2019 at 02:01:39 UTC . Weather information available at that time is displayed.

METAR/TAF

LA GRANDE-4/QC    (show WxCam)

METAR CYAH 210100Z AUTO 00000KT 9SM CLR M16/M21 A2996 RMK ICG MISG SLP178=
METAR CYAH 210000Z AUTO 11004KT 9SM CLR M13/M20 A2998 RMK ICG MISG SLP180=
METAR CYAH 202300Z AUTO 08003KT 9SM CLR M09/M20 A2999 RMK ICG MISG SLP180=

*** REMARK        : Forecast period has ended; this was the last TAF issued
*** REMARQUE : La période de prévision est échue; ceci était le dernier TAF qui a été émis
TAF CYAH 201738Z 2018/2021 08007KT P6SM FEW220
RMK FCST BASED ON AUTO OBS. NXT FCST WILL BE ISSUED AT 211045Z=
Your time UTC time
Weather data provided by Environment Canada and NAV CANADA